createdAt,value
2023-03-02T00:00:22.348Z,869.46
2023-03-02T00:01:22.324Z,868.49
2023-03-02T00:02:22.628Z,865.14
2023-03-02T00:03:22.347Z,870.58
2023-03-02T00:04:22.301Z,868.53
2023-03-02T00:05:22.293Z,873.29
2023-03-02T00:06:22.275Z,859.76
2023-03-02T00:07:22.266Z,866.74
2023-03-02T00:08:22.256Z,871.47
2023-03-02T00:09:22.238Z,861.02
2023-03-02T00:10:22.276Z,866.94
2023-03-02T00:11:22.227Z,861.82
2023-03-02T00:12:22.214Z,859.03
2023-03-02T00:13:22.189Z,853.09
2023-03-02T00:14:22.203Z,861.25
2023-03-02T00:15:22.180Z,861.84
2023-03-02T00:16:22.205Z,873.19
2023-03-02T00:17:22.145Z,878.08
2023-03-02T00:18:22.154Z,874.28
2023-03-02T00:19:22.150Z,863.62
2023-03-02T00:20:22.131Z,860.44
2023-03-02T00:21:22.124Z,856.33
2023-03-02T00:22:22.119Z,864.51
2023-03-02T00:23:22.083Z,869.65
2023-03-02T00:24:22.071Z,859.61
2023-03-02T00:25:22.054Z,869.16
2023-03-02T00:26:22.079Z,869.39
2023-03-02T00:27:22.034Z,864.28
2023-03-02T00:28:22.038Z,861.35
2023-03-02T00:29:22.032Z,855.96
2023-03-02T00:30:22.004Z,863.31
2023-03-02T00:31:21.996Z,856.35
2023-03-02T00:32:22.004Z,854.21
2023-03-02T00:33:21.966Z,856.71
2023-03-02T00:34:21.962Z,859.04
2023-03-02T00:35:22.015Z,852.43
2023-03-02T00:36:21.936Z,850.47
2023-03-02T00:37:21.919Z,860.19
2023-03-02T00:38:21.907Z,861.98
2023-03-02T00:39:21.915Z,865.26
2023-03-02T00:40:21.931Z,860.07
2023-03-02T00:41:21.981Z,862.45
2023-03-02T00:42:21.860Z,867.13
2023-03-02T00:43:28.865Z,868.07
2023-03-02T00:44:21.852Z,863.75
2023-03-02T00:45:21.836Z,860.82
2023-03-02T00:46:21.876Z,864.27
2023-03-02T00:47:21.811Z,871.49
2023-03-02T00:48:21.802Z,866.48
2023-03-02T00:49:21.820Z,865.24
2023-03-02T00:50:21.816Z,855.50
2023-03-02T00:51:21.805Z,861.03
2023-03-02T00:52:21.755Z,858.71
2023-03-02T00:53:21.733Z,863.40
2023-03-02T00:54:21.724Z,864.90
2023-03-02T00:55:21.724Z,860.56
2023-03-02T00:56:21.703Z,858.70
2023-03-02T00:57:21.698Z,860.90
2023-03-02T00:58:21.687Z,870.29
2023-03-02T00:59:21.691Z,868.72
2023-03-02T01:00:21.661Z,859.13
2023-03-02T01:01:21.652Z,857.48
2023-03-02T01:02:21.764Z,862.69
2023-03-02T01:03:21.677Z,860.23
2023-03-02T01:04:21.615Z,856.95
2023-03-02T01:05:21.602Z,857.18
2023-03-02T01:06:21.597Z,856.62
2023-03-02T01:07:21.636Z,859.42
2023-03-02T01:08:21.578Z,869.88
2023-03-02T01:09:21.585Z,854.50
2023-03-02T01:10:21.573Z,854.34
2023-03-02T01:11:21.603Z,856.36
2023-03-02T01:12:21.545Z,857.08
2023-03-02T01:13:21.528Z,848.44
2023-03-02T01:14:21.565Z,850.14
2023-03-02T01:15:21.495Z,849.04
2023-03-02T01:16:21.550Z,852.12
2023-03-02T01:17:21.490Z,852.04
2023-03-02T01:18:21.469Z,856.91
2023-03-02T01:19:21.467Z,858.84
2023-03-02T01:20:21.448Z,856.33
2023-03-02T01:21:21.446Z,858.48
2023-03-02T01:22:21.425Z,857.59
2023-03-02T01:23:21.441Z,857.21
2023-03-02T01:24:21.423Z,870.17
2023-03-02T01:25:21.429Z,868.32
2023-03-02T01:26:21.403Z,865.59
2023-03-02T01:27:21.398Z,870.03
2023-03-02T01:28:21.369Z,867.92
2023-03-02T01:29:21.358Z,856.24
2023-03-02T01:30:21.392Z,857.75
2023-03-02T01:31:21.429Z,861.48
2023-03-02T01:32:21.404Z,854.13
2023-03-02T01:33:21.336Z,852.46
2023-03-02T01:34:21.327Z,859.92
2023-03-02T01:35:21.419Z,864.63
2023-03-02T01:36:21.292Z,871.74
2023-03-02T01:37:21.266Z,876.21
2023-03-02T01:38:21.317Z,886.66
2023-03-02T01:39:21.263Z,879.18
2023-03-02T01:40:21.256Z,877.92
2023-03-02T01:41:21.235Z,873.81
2023-03-02T01:42:21.218Z,880.94
2023-03-02T01:43:21.218Z,870.26
2023-03-02T01:44:21.215Z,866.72
2023-03-02T01:45:21.246Z,863.68
2023-03-02T01:46:21.162Z,865.63
2023-03-02T01:47:21.179Z,878.35
2023-03-02T01:48:21.149Z,878.54
2023-03-02T01:49:21.172Z,876.78
2023-03-02T01:50:21.138Z,870.50
2023-03-02T01:51:21.117Z,876.09
2023-03-02T01:52:21.098Z,876.01
2023-03-02T01:53:21.086Z,866.16
2023-03-02T01:54:21.089Z,872.65
2023-03-02T01:55:21.098Z,874.39
2023-03-02T01:56:21.052Z,875.28
2023-03-02T01:57:21.057Z,876.74
2023-03-02T01:58:21.031Z,883.66
2023-03-02T01:59:21.029Z,876.02
2023-03-02T02:00:21.018Z,879.85
2023-03-02T02:01:21.075Z,888.13
2023-03-02T02:02:21.000Z,876.03
2023-03-02T02:03:21.097Z,877.05
2023-03-02T02:04:21.016Z,871.75
2023-03-02T02:05:20.951Z,878.67
2023-03-02T02:06:20.938Z,876.03
2023-03-02T02:07:20.928Z,870.98
2023-03-02T02:08:20.931Z,871.72
2023-03-02T02:09:20.909Z,869.20
2023-03-02T02:10:20.901Z,868.28
2023-03-02T02:11:20.905Z,868.20
2023-03-02T02:12:20.894Z,867.13
2023-03-02T02:13:20.871Z,866.81
2023-03-02T02:14:20.860Z,875.93
2023-03-02T02:15:20.866Z,872.18
2023-03-02T02:16:20.901Z,870.45
2023-03-02T02:17:20.825Z,872.22
2023-03-02T02:18:20.853Z,874.72
2023-03-02T02:19:20.816Z,878.76
2023-03-02T02:20:20.787Z,882.11
2023-03-02T02:21:20.781Z,888.28
2023-03-02T02:22:20.759Z,883.81
2023-03-02T02:23:20.760Z,883.78
2023-03-02T02:24:20.752Z,878.09
2023-03-02T02:25:20.744Z,889.12
2023-03-02T02:26:20.730Z,889.09
2023-03-02T02:27:20.739Z,893.12
2023-03-02T02:28:20.702Z,884.18
2023-03-02T02:29:20.694Z,880.37
2023-03-02T02:30:20.683Z,877.64
2023-03-02T02:31:20.757Z,880.71
2023-03-02T02:32:20.772Z,882.59
2023-03-02T02:33:20.641Z,875.08
2023-03-02T02:34:20.632Z,883.05
2023-03-02T02:35:20.718Z,879.99
2023-03-02T02:36:20.622Z,873.85
2023-03-02T02:37:20.606Z,875.46
2023-03-02T02:38:20.594Z,878.35
2023-03-02T02:39:20.592Z,872.37
2023-03-02T02:40:20.573Z,871.40
2023-03-02T02:41:20.547Z,877.76
2023-03-02T02:42:20.543Z,878.54
2023-03-02T02:43:20.542Z,878.32
2023-03-02T02:44:28.036Z,875.03
2023-03-02T02:45:20.506Z,877.07
2023-03-02T02:46:20.535Z,875.61
2023-03-02T02:47:20.480Z,888.34
2023-03-02T02:48:20.501Z,881.49
2023-03-02T02:49:20.482Z,888.17
2023-03-02T02:50:20.468Z,885.53
2023-03-02T02:51:20.457Z,881.27
2023-03-02T02:52:20.433Z,876.00
2023-03-02T02:53:20.452Z,867.02
2023-03-02T02:54:20.417Z,871.37
2023-03-02T02:55:20.412Z,871.95
2023-03-02T02:56:20.388Z,872.93
2023-03-02T02:57:20.393Z,874.44
2023-03-02T02:58:20.361Z,875.68
2023-03-02T02:59:20.384Z,875.36
2023-03-02T03:00:20.337Z,877.56
2023-03-02T03:01:20.379Z,879.34
2023-03-02T03:02:20.344Z,878.05
2023-03-02T03:03:20.304Z,875.64
2023-03-02T03:04:20.382Z,879.42
2023-03-02T03:05:20.296Z,871.07
2023-03-02T03:06:20.268Z,873.03
2023-03-02T03:07:20.270Z,873.35
2023-03-02T03:08:20.276Z,871.47
2023-03-02T03:09:20.299Z,880.59
2023-03-02T03:10:20.225Z,882.36
2023-03-02T03:11:20.236Z,884.41
2023-03-02T03:12:20.202Z,875.89
2023-03-02T03:13:20.195Z,869.78
2023-03-02T03:14:20.202Z,870.92
2023-03-02T03:15:20.197Z,875.00
2023-03-02T03:16:20.200Z,872.70
2023-03-02T03:17:20.161Z,876.23
2023-03-02T03:18:20.149Z,868.77
2023-03-02T03:19:20.154Z,864.70
2023-03-02T03:20:20.118Z,871.59
2023-03-02T03:21:20.127Z,877.08
2023-03-02T03:22:20.095Z,878.51
2023-03-02T03:23:20.114Z,877.81
2023-03-02T03:24:20.110Z,878.12
2023-03-02T03:25:20.064Z,876.12
2023-03-02T03:26:20.051Z,867.10
2023-03-02T03:27:20.059Z,880.40
2023-03-02T03:28:20.057Z,877.72
2023-03-02T03:29:20.047Z,873.44
2023-03-02T03:30:20.009Z,877.62
2023-03-02T03:31:20.125Z,869.97
2023-03-02T03:32:20.126Z,865.05
2023-03-02T03:33:19.990Z,869.60
2023-03-02T03:34:19.985Z,866.24
2023-03-02T03:35:20.022Z,867.84
2023-03-02T03:36:19.944Z,866.27
2023-03-02T03:37:19.950Z,870.83
2023-03-02T03:38:19.931Z,861.61
2023-03-02T03:39:19.914Z,864.96
2023-03-02T03:40:19.902Z,865.24
2023-03-02T03:41:19.900Z,868.35
2023-03-02T03:42:19.918Z,864.54
2023-03-02T03:43:19.884Z,868.51
2023-03-02T03:44:19.860Z,869.30
2023-03-02T03:45:19.849Z,872.55
2023-03-02T03:46:19.913Z,876.68
2023-03-02T03:47:19.862Z,876.95
2023-03-02T03:48:19.820Z,875.03
2023-03-02T03:49:19.813Z,868.61
2023-03-02T03:50:19.817Z,865.50
2023-03-02T03:51:19.792Z,873.15
2023-03-02T03:52:19.789Z,871.81
2023-03-02T03:53:19.793Z,865.45
2023-03-02T03:54:19.783Z,861.61
2023-03-02T03:55:19.750Z,864.26
2023-03-02T03:56:19.753Z,868.57
2023-03-02T03:57:19.729Z,867.49
2023-03-02T03:58:19.758Z,861.95
2023-03-02T03:59:19.733Z,862.15
2023-03-02T04:00:19.693Z,869.29
2023-03-02T04:01:19.765Z,870.18
2023-03-02T04:02:19.736Z,867.24
2023-03-02T04:03:19.711Z,865.88
2023-03-02T04:04:19.656Z,878.77
2023-03-02T04:05:19.660Z,879.86
2023-03-02T04:06:19.631Z,887.10
2023-03-02T04:07:19.623Z,879.31
2023-03-02T04:08:19.627Z,885.01
2023-03-02T04:09:19.603Z,887.37
2023-03-02T04:10:19.610Z,882.02
2023-03-02T04:11:19.592Z,883.50
2023-03-02T04:12:19.576Z,872.22
2023-03-02T04:13:19.562Z,872.44
2023-03-02T04:14:19.553Z,875.13
2023-03-02T04:15:19.558Z,866.06
2023-03-02T04:16:19.604Z,874.72
2023-03-02T04:17:19.524Z,865.69
2023-03-02T04:18:19.525Z,858.40
2023-03-02T04:19:19.525Z,866.69
2023-03-02T04:20:19.520Z,863.36
2023-03-02T04:21:19.486Z,867.28
2023-03-02T04:22:19.469Z,864.48
2023-03-02T04:23:19.466Z,872.02
2023-03-02T04:24:19.463Z,869.40
2023-03-02T04:25:19.457Z,867.28
2023-03-02T04:26:19.456Z,866.26
2023-03-02T04:27:19.415Z,866.10
2023-03-02T04:28:19.417Z,865.56
2023-03-02T04:29:19.394Z,868.17
2023-03-02T04:30:19.384Z,866.46
2023-03-02T04:31:19.431Z,877.20
2023-03-02T04:32:19.390Z,877.03
2023-03-02T04:33:19.374Z,881.74
2023-03-02T04:34:19.365Z,880.20
2023-03-02T04:35:19.445Z,874.82
2023-03-02T04:36:19.348Z,868.98
2023-03-02T04:37:19.345Z,869.01
2023-03-02T04:38:19.342Z,871.07
2023-03-02T04:39:19.304Z,877.43
2023-03-02T04:40:19.305Z,869.06
2023-03-02T04:41:19.288Z,863.60
2023-03-02T04:42:19.273Z,872.56
2023-03-02T04:43:19.291Z,868.61
2023-03-02T04:44:19.266Z,868.77
2023-03-02T04:45:26.765Z,871.28
2023-03-02T04:46:19.308Z,869.16
2023-03-02T04:47:19.241Z,868.81
2023-03-02T04:48:19.218Z,874.49
2023-03-02T04:49:19.236Z,874.45
2023-03-02T04:50:19.208Z,872.45
2023-03-02T04:51:19.214Z,879.04
2023-03-02T04:52:19.193Z,877.80
2023-03-02T04:53:19.173Z,877.82
2023-03-02T04:54:19.167Z,882.75
2023-03-02T04:55:19.164Z,874.83
2023-03-02T04:56:19.136Z,871.98
2023-03-02T04:57:19.145Z,879.20
2023-03-02T04:58:19.121Z,878.99
2023-03-02T04:59:19.134Z,874.27
2023-03-02T05:00:19.107Z,866.72
2023-03-02T05:01:19.090Z,867.76
2023-03-02T05:02:19.213Z,867.21
2023-03-02T05:03:19.085Z,868.97
2023-03-02T05:04:19.135Z,876.15
2023-03-02T05:05:19.057Z,877.85
2023-03-02T05:06:19.035Z,884.78
2023-03-02T05:07:19.069Z,877.03
2023-03-02T05:08:19.040Z,871.45
2023-03-02T05:09:19.012Z,871.36
2023-03-02T05:10:19.021Z,868.36
2023-03-02T05:11:19.000Z,866.77
2023-03-02T05:12:19.011Z,864.13
2023-03-02T05:13:18.989Z,871.50
2023-03-02T05:14:18.992Z,872.07
2023-03-02T05:15:18.954Z,873.84
2023-03-02T05:16:19.052Z,880.02
2023-03-02T05:17:18.942Z,877.12
2023-03-02T05:18:18.918Z,884.37
2023-03-02T05:19:18.933Z,883.24
2023-03-02T05:20:18.902Z,879.29
2023-03-02T05:21:18.910Z,877.11
2023-03-02T05:22:18.891Z,872.78
2023-03-02T05:23:18.912Z,876.72
2023-03-02T05:24:18.861Z,871.25
2023-03-02T05:25:18.862Z,863.16
2023-03-02T05:26:18.854Z,870.23
2023-03-02T05:27:18.846Z,866.63
2023-03-02T05:28:18.817Z,869.24
2023-03-02T05:29:18.812Z,863.47
2023-03-02T05:30:18.800Z,863.06
2023-03-02T05:31:19.333Z,870.63
2023-03-02T05:32:18.835Z,870.15
2023-03-02T05:33:18.777Z,869.83
2023-03-02T05:34:18.773Z,865.06
2023-03-02T05:35:18.852Z,870.75
2023-03-02T05:36:20.320Z,872.67
2023-03-02T05:37:18.760Z,866.78
2023-03-02T05:38:18.717Z,867.26
2023-03-02T05:39:18.774Z,866.60
2023-03-02T05:40:18.709Z,862.83
2023-03-02T05:41:18.709Z,869.87
2023-03-02T05:42:18.681Z,872.61
2023-03-02T05:43:18.684Z,860.47
2023-03-02T05:44:18.696Z,864.37
2023-03-02T05:45:18.645Z,866.12
2023-03-02T05:46:20.415Z,863.68
2023-03-02T05:47:18.634Z,866.65
2023-03-02T05:48:18.622Z,862.07
2023-03-02T05:49:18.639Z,869.11
2023-03-02T05:50:18.631Z,863.96
2023-03-02T05:51:18.597Z,869.39
2023-03-02T05:52:18.584Z,868.09
2023-03-02T05:53:18.568Z,862.75
2023-03-02T05:54:18.581Z,870.61
2023-03-02T05:55:18.584Z,864.31
2023-03-02T05:56:18.548Z,858.41
2023-03-02T05:57:18.537Z,863.96
2023-03-02T05:58:18.518Z,867.90
2023-03-02T05:59:18.505Z,869.12
2023-03-02T06:00:18.512Z,878.24
2023-03-02T06:01:18.517Z,873.40
2023-03-02T06:02:18.535Z,869.78
2023-03-02T06:03:18.560Z,868.27
2023-03-02T06:04:18.459Z,875.01
2023-03-02T06:05:18.458Z,877.47
2023-03-02T06:06:18.464Z,880.68
2023-03-02T06:07:18.432Z,875.07
2023-03-02T06:08:18.425Z,866.59
2023-03-02T06:09:18.432Z,867.68
2023-03-02T06:10:18.407Z,869.99
2023-03-02T06:11:18.432Z,870.75
2023-03-02T06:12:18.399Z,866.82
2023-03-02T06:13:18.391Z,863.49
2023-03-02T06:14:18.370Z,870.59
2023-03-02T06:15:18.341Z,872.61
2023-03-02T06:16:18.388Z,869.15
2023-03-02T06:17:18.348Z,861.77
2023-03-02T06:18:18.356Z,866.83
2023-03-02T06:19:18.300Z,868.27
2023-03-02T06:20:18.326Z,870.47
2023-03-02T06:21:18.314Z,866.63
2023-03-02T06:22:18.328Z,872.55
2023-03-02T06:23:18.305Z,873.30
2023-03-02T06:24:18.269Z,859.15
2023-03-02T06:25:18.240Z,858.33
2023-03-02T06:26:18.262Z,861.08
2023-03-02T06:27:18.239Z,861.98
2023-03-02T06:28:18.212Z,857.35
2023-03-02T06:29:18.240Z,858.15
2023-03-02T06:30:18.197Z,856.65
2023-03-02T06:31:18.275Z,854.45
2023-03-02T06:32:18.361Z,857.06
2023-03-02T06:33:18.205Z,866.65
2023-03-02T06:34:18.149Z,873.00
2023-03-02T06:35:18.291Z,861.84
2023-03-02T06:36:18.230Z,860.03
2023-03-02T06:37:18.145Z,857.97
2023-03-02T06:38:18.105Z,848.44
2023-03-02T06:39:18.108Z,854.49
2023-03-02T06:40:18.094Z,857.14
2023-03-02T06:41:18.184Z,853.64
2023-03-02T06:42:18.067Z,863.54
2023-03-02T06:43:18.081Z,853.46
2023-03-02T06:44:18.049Z,855.41
2023-03-02T06:45:18.032Z,849.78
2023-03-02T06:47:28.019Z,834.65
2023-03-02T06:48:28.028Z,857.12
2023-03-02T06:49:27.984Z,861.54
2023-03-02T06:50:28.958Z,867.21
2023-03-02T06:51:27.973Z,853.85
2023-03-02T06:52:28.019Z,857.27
2023-03-02T06:53:30.586Z,855.33
2023-03-02T06:54:27.971Z,860.59
2023-03-02T06:55:27.937Z,854.02
2023-03-02T06:56:27.936Z,853.13
2023-03-02T06:57:27.934Z,864.32
2023-03-02T06:58:27.951Z,864.40
2023-03-02T06:59:27.927Z,862.06
2023-03-02T07:00:27.920Z,852.13
2023-03-02T07:01:27.875Z,848.50
2023-03-02T07:02:27.857Z,843.44
2023-03-02T07:03:27.894Z,852.41
2023-03-02T07:04:27.840Z,852.32
2023-03-02T07:05:27.814Z,841.45
2023-03-02T07:06:27.806Z,843.93
2023-03-02T07:07:27.795Z,855.14
2023-03-02T07:08:27.783Z,850.67
2023-03-02T07:09:27.781Z,843.69
2023-03-02T07:10:27.754Z,835.91
2023-03-02T07:11:27.760Z,845.12
2023-03-02T07:12:27.753Z,842.56
2023-03-02T07:13:27.731Z,844.02
2023-03-02T07:14:27.729Z,846.74
2023-03-02T07:15:27.722Z,832.05
2023-03-02T07:16:27.767Z,840.69
2023-03-02T07:17:27.673Z,839.32
2023-03-02T07:18:27.989Z,831.10
2023-03-02T07:19:27.650Z,834.45
2023-03-02T07:20:27.642Z,836.54
2023-03-02T07:21:27.641Z,835.26
2023-03-02T07:22:27.617Z,830.66
2023-03-02T07:23:27.604Z,833.45
2023-03-02T07:24:27.613Z,828.73
2023-03-02T07:25:27.579Z,834.52
2023-03-02T07:26:27.606Z,821.29
2023-03-02T07:27:27.560Z,816.94
2023-03-02T07:28:27.561Z,821.35
2023-03-02T07:29:27.549Z,820.23
2023-03-02T07:30:27.551Z,822.59
2023-03-02T07:31:27.533Z,815.02
2023-03-02T07:32:27.547Z,818.73
2023-03-02T07:33:27.490Z,812.53
2023-03-02T07:34:27.520Z,814.19
2023-03-02T07:35:27.479Z,805.11
2023-03-02T07:36:27.460Z,813.51
2023-03-02T07:37:27.508Z,808.74
2023-03-02T07:38:27.439Z,809.77
2023-03-02T07:39:27.431Z,805.37
2023-03-02T07:40:27.420Z,797.95
2023-03-02T07:41:27.424Z,794.97
2023-03-02T07:42:27.397Z,794.32
2023-03-02T07:43:27.391Z,801.29
2023-03-02T07:44:27.366Z,797.99
2023-03-02T07:45:27.373Z,804.93
2023-03-02T07:46:27.462Z,799.58
2023-03-02T07:47:27.358Z,792.98
2023-03-02T07:48:27.337Z,805.51
2023-03-02T07:49:27.318Z,806.44
2023-03-02T07:50:27.308Z,798.09
2023-03-02T07:51:27.303Z,800.76
2023-03-02T07:52:27.296Z,795.45
2023-03-02T07:53:27.272Z,795.25
2023-03-02T07:54:27.260Z,799.09
2023-03-02T07:55:27.248Z,792.19
2023-03-02T07:56:28.037Z,805.04
2023-03-02T07:57:27.258Z,804.80
2023-03-02T07:58:27.220Z,802.08
2023-03-02T07:59:27.234Z,801.78
2023-03-02T08:00:27.991Z,799.17
2023-03-02T08:01:27.217Z,799.82
2023-03-02T08:02:27.258Z,806.41
2023-03-02T08:03:27.182Z,794.83
2023-03-02T08:04:27.154Z,794.22
2023-03-02T08:05:27.158Z,793.74
2023-03-02T08:06:27.208Z,788.34
2023-03-02T08:07:27.244Z,791.21
2023-03-02T08:08:27.104Z,790.44
2023-03-02T08:09:27.105Z,794.26
2023-03-02T08:10:27.084Z,791.05
2023-03-02T08:11:27.073Z,793.03
2023-03-02T08:12:27.062Z,791.89
2023-03-02T08:13:27.051Z,797.82
2023-03-02T08:14:27.053Z,801.27
2023-03-02T08:15:27.511Z,792.49
2023-03-02T08:16:27.133Z,790.56
2023-03-02T08:17:27.058Z,787.09
2023-03-02T08:18:27.021Z,786.06
2023-03-02T08:19:26.986Z,798.21
2023-03-02T08:20:26.995Z,800.32
2023-03-02T08:21:27.014Z,795.34
2023-03-02T08:22:26.957Z,788.30
2023-03-02T08:23:26.981Z,795.92
2023-03-02T08:24:26.951Z,793.00
2023-03-02T08:25:26.924Z,786.85
2023-03-02T08:26:26.912Z,791.49
2023-03-02T08:27:26.946Z,792.57
2023-03-02T08:28:26.903Z,793.87
2023-03-02T08:29:26.910Z,788.49
2023-03-02T08:30:26.911Z,786.19
2023-03-02T08:31:27.643Z,804.95
2023-03-02T08:32:26.963Z,790.85
2023-03-02T08:33:26.877Z,792.22
2023-03-02T08:34:26.854Z,789.95
2023-03-02T08:35:26.921Z,787.97
2023-03-02T08:36:26.821Z,786.27
2023-03-02T08:37:27.060Z,793.91
2023-03-02T08:38:26.907Z,798.05
2023-03-02T08:39:28.979Z,789.12
2023-03-02T08:40:28.545Z,791.50
2023-03-02T08:41:26.778Z,799.74
2023-03-02T08:42:26.759Z,796.10
2023-03-02T08:43:26.748Z,790.57
2023-03-02T08:44:26.768Z,787.98
2023-03-02T08:45:26.750Z,785.93
2023-03-02T08:46:26.728Z,795.40
2023-03-02T08:47:34.241Z,798.16
2023-03-02T08:48:26.776Z,791.89
2023-03-02T08:49:26.675Z,790.46
2023-03-02T08:50:26.683Z,784.99
2023-03-02T08:51:26.648Z,788.83
2023-03-02T08:52:26.639Z,790.60
2023-03-02T08:53:26.640Z,791.12
2023-03-02T08:54:26.627Z,796.67
2023-03-02T08:55:26.621Z,792.25
2023-03-02T08:56:26.601Z,793.72
2023-03-02T08:57:26.606Z,793.84
2023-03-02T08:58:26.580Z,798.18
2023-03-02T08:59:26.548Z,803.52
2023-03-02T09:00:26.558Z,795.72
2023-03-02T09:01:26.615Z,796.59
2023-03-02T09:02:26.517Z,804.86
2023-03-02T09:03:26.531Z,801.74
2023-03-02T09:04:26.559Z,794.58
2023-03-02T09:05:26.538Z,790.21
2023-03-02T09:06:26.532Z,789.07
2023-03-02T09:07:26.501Z,793.61
2023-03-02T09:08:26.469Z,795.62
2023-03-02T09:09:26.535Z,790.36
2023-03-02T09:10:26.484Z,786.07
2023-03-02T09:11:26.441Z,796.27
2023-03-02T09:12:26.409Z,800.56
2023-03-02T09:13:26.392Z,802.38
2023-03-02T09:14:26.407Z,799.14
2023-03-02T09:15:26.429Z,796.79
2023-03-02T09:16:26.447Z,792.42
2023-03-02T09:17:26.371Z,793.53
2023-03-02T09:18:26.336Z,789.31
2023-03-02T09:19:26.339Z,789.96
2023-03-02T09:20:26.408Z,785.54
2023-03-02T09:21:26.322Z,788.74
2023-03-02T09:22:26.314Z,784.80
2023-03-02T09:23:26.317Z,801.75
2023-03-02T09:24:26.316Z,798.22
2023-03-02T09:25:26.302Z,804.76
2023-03-02T09:26:26.288Z,796.99
2023-03-02T09:27:26.258Z,790.54
2023-03-02T09:28:26.268Z,785.31
2023-03-02T09:29:26.292Z,782.94
2023-03-02T09:30:26.337Z,789.70
2023-03-02T09:31:27.925Z,792.38
2023-03-02T09:32:26.305Z,791.24
2023-03-02T09:33:26.230Z,789.06
2023-03-02T09:34:26.189Z,784.84
2023-03-02T09:35:26.179Z,785.54
2023-03-02T09:36:26.166Z,790.00
2023-03-02T09:37:26.187Z,785.85
2023-03-02T09:38:26.137Z,792.10
2023-03-02T09:39:26.177Z,796.62
2023-03-02T09:40:26.125Z,795.45
2023-03-02T09:41:26.114Z,793.55
2023-03-02T09:42:38.121Z,798.50
2023-03-02T09:43:27.076Z,787.52
2023-03-02T09:44:26.072Z,781.52
2023-03-02T09:45:26.061Z,783.73
2023-03-02T09:46:26.182Z,781.09
2023-03-02T09:47:35.270Z,793.39
2023-03-02T09:48:27.033Z,805.28
2023-03-02T09:49:26.067Z,805.23
2023-03-02T09:50:26.029Z,804.23
2023-03-02T09:51:26.089Z,796.06
2023-03-02T09:52:25.968Z,807.00
2023-03-02T09:53:25.981Z,808.36
2023-03-02T09:54:26.108Z,810.66
2023-03-02T09:55:25.935Z,812.94
2023-03-02T09:56:25.952Z,807.39
2023-03-02T09:57:25.930Z,809.68
2023-03-02T09:58:25.900Z,808.38
2023-03-02T09:59:25.892Z,809.86
2023-03-02T10:00:25.936Z,799.18
2023-03-02T10:01:25.883Z,806.95
2023-03-02T10:02:25.852Z,812.22
2023-03-02T10:03:25.908Z,803.59
2023-03-02T10:04:26.065Z,808.36
2023-03-02T10:05:25.863Z,802.69
2023-03-02T10:06:25.823Z,800.03
2023-03-02T10:07:25.859Z,804.81
2023-03-02T10:08:25.806Z,806.09
2023-03-02T10:09:25.780Z,810.84
2023-03-02T10:10:25.815Z,806.53
2023-03-02T10:11:25.775Z,804.85
2023-03-02T10:12:25.754Z,801.40
2023-03-02T10:13:25.750Z,809.05
2023-03-02T10:14:25.732Z,811.45
2023-03-02T10:15:25.719Z,825.05
2023-03-02T10:16:25.835Z,819.93
2023-03-02T10:17:25.718Z,811.12
2023-03-02T10:18:25.698Z,807.00
2023-03-02T10:19:27.512Z,807.03
2023-03-02T10:20:25.674Z,816.08
2023-03-02T10:21:25.679Z,817.18
2023-03-02T10:22:25.637Z,815.79
2023-03-02T10:23:25.648Z,821.88
2023-03-02T10:24:27.512Z,824.66
2023-03-02T10:25:25.601Z,820.33
2023-03-02T10:26:25.654Z,811.83
2023-03-02T10:27:25.617Z,814.98
2023-03-02T10:28:25.634Z,813.25
2023-03-02T10:29:25.569Z,808.07
2023-03-02T10:30:25.601Z,809.27
2023-03-02T10:31:25.621Z,806.90
2023-03-02T10:32:25.573Z,803.10
2023-03-02T10:33:25.531Z,820.59
2023-03-02T10:34:25.515Z,807.66
2023-03-02T10:35:25.515Z,802.76
2023-03-02T10:36:25.480Z,806.39
2023-03-02T10:37:25.661Z,817.51
2023-03-02T10:38:25.491Z,816.01
2023-03-02T10:39:25.522Z,812.18
2023-03-02T10:40:25.432Z,820.53
2023-03-02T10:41:25.434Z,817.93
2023-03-02T10:42:25.464Z,818.85
2023-03-02T10:43:25.402Z,813.20
2023-03-02T10:44:25.394Z,806.39
2023-03-02T10:45:25.379Z,813.19
2023-03-02T10:46:25.530Z,810.00
2023-03-02T10:47:25.359Z,803.68
2023-03-02T10:48:32.875Z,796.92
2023-03-02T10:49:25.374Z,813.44
2023-03-02T10:50:25.347Z,813.78
2023-03-02T10:51:25.311Z,805.76
2023-03-02T10:52:25.314Z,803.93
2023-03-02T10:53:25.304Z,801.21
2023-03-02T10:54:25.274Z,807.29
2023-03-02T10:55:25.268Z,808.46
2023-03-02T10:56:25.298Z,802.75
2023-03-02T10:57:25.268Z,802.97
2023-03-02T10:58:25.267Z,800.99
2023-03-02T10:59:25.229Z,797.86
2023-03-02T11:00:25.217Z,805.17
2023-03-02T11:01:25.279Z,796.85
2023-03-02T11:02:25.200Z,797.30
2023-03-02T11:03:25.227Z,797.83
2023-03-02T11:04:25.249Z,797.72
2023-03-02T11:05:25.159Z,811.23
2023-03-02T11:06:25.155Z,813.45
2023-03-02T11:07:25.185Z,804.95
2023-03-02T11:08:25.125Z,806.89
2023-03-02T11:10:25.117Z,801.06
2023-03-02T11:11:25.161Z,812.47
2023-03-02T11:12:25.126Z,800.88
2023-03-02T11:13:25.082Z,805.99
2023-03-02T11:14:25.196Z,802.63
2023-03-02T11:15:25.054Z,796.63
2023-03-02T11:16:25.096Z,799.82
2023-03-02T11:17:25.029Z,796.70
2023-03-02T11:18:25.026Z,801.99
2023-03-02T11:19:25.032Z,803.19
2023-03-02T11:20:24.998Z,801.27
2023-03-02T11:21:24.984Z,799.62
2023-03-02T11:22:25.004Z,799.11
2023-03-02T11:23:24.995Z,798.83
2023-03-02T11:24:24.946Z,807.41
2023-03-02T11:25:24.949Z,808.28
2023-03-02T11:26:24.942Z,805.93
2023-03-02T11:27:24.921Z,802.43
2023-03-02T11:28:24.911Z,799.18
2023-03-02T11:29:24.972Z,795.46
2023-03-02T11:30:24.910Z,797.40
2023-03-02T11:31:24.932Z,801.61
2023-03-02T11:32:24.944Z,795.54
2023-03-02T11:33:24.939Z,794.51
2023-03-02T11:34:27.010Z,797.61
2023-03-02T11:35:24.878Z,797.94
2023-03-02T11:36:24.830Z,797.69
2023-03-02T11:37:24.834Z,806.06
2023-03-02T11:38:24.811Z,803.33
2023-03-02T11:39:24.835Z,794.34
2023-03-02T11:40:24.794Z,795.19
2023-03-02T11:41:24.776Z,790.23
2023-03-02T11:42:24.791Z,786.54
2023-03-02T11:43:24.769Z,791.31
2023-03-02T11:44:24.791Z,790.46
2023-03-02T11:45:27.633Z,788.07
2023-03-02T11:46:26.284Z,788.02
2023-03-02T11:47:24.752Z,796.21
2023-03-02T11:48:24.777Z,790.04
2023-03-02T11:49:24.723Z,794.69
2023-03-02T11:50:24.675Z,787.76
2023-03-02T11:51:24.668Z,786.60
2023-03-02T11:52:24.645Z,793.63
2023-03-02T11:53:24.667Z,794.91
2023-03-02T11:54:24.672Z,792.59
2023-03-02T11:55:24.618Z,792.54
2023-03-02T11:56:24.612Z,789.55
2023-03-02T11:57:24.602Z,788.57
2023-03-02T11:58:24.580Z,783.33
2023-03-02T11:59:27.528Z,783.72
2023-03-02T12:00:24.580Z,779.56
2023-03-02T12:01:24.606Z,784.89
2023-03-02T12:02:24.557Z,779.17
2023-03-02T12:03:24.528Z,782.25
2023-03-02T12:04:24.518Z,784.97
2023-03-02T12:05:24.584Z,791.62
2023-03-02T12:06:24.509Z,787.32
2023-03-02T12:07:24.493Z,784.77
2023-03-02T12:08:24.478Z,787.45
2023-03-02T12:09:24.505Z,784.56
2023-03-02T12:10:24.441Z,781.48
2023-03-02T12:11:24.432Z,779.75
2023-03-02T12:12:24.482Z,780.65
2023-03-02T12:13:24.408Z,784.88
2023-03-02T12:14:24.512Z,781.51
2023-03-02T12:15:24.448Z,782.36
2023-03-02T12:16:24.463Z,782.12
2023-03-02T12:17:24.402Z,778.60
2023-03-02T12:18:24.371Z,783.11
2023-03-02T12:19:24.343Z,786.77
2023-03-02T12:20:24.346Z,791.41
2023-03-02T12:21:24.334Z,783.72
2023-03-02T12:22:24.323Z,777.86
2023-03-02T12:23:24.307Z,787.12
2023-03-02T12:24:24.310Z,787.63
2023-03-02T12:25:24.295Z,786.52
2023-03-02T12:26:24.264Z,785.58
2023-03-02T12:27:24.290Z,786.69
2023-03-02T12:28:24.280Z,786.05
2023-03-02T12:29:24.319Z,778.55
2023-03-02T12:30:24.297Z,781.36